createdAt,value
2017-11-20T00:00:48.866Z,0
2017-11-20T00:01:58.937Z,0
2017-11-20T00:03:08.803Z,0
2017-11-20T00:04:18.854Z,0
2017-11-20T00:05:28.958Z,0
2017-11-20T00:06:38.255Z,0
2017-11-20T00:07:48.326Z,0
2017-11-20T00:08:58.162Z,0
2017-11-20T00:10:08.241Z,0
2017-11-20T00:11:18.559Z,0
2017-11-20T00:12:28.653Z,0
2017-11-20T00:13:38.467Z,0
2017-11-20T00:14:48.356Z,0
2017-11-20T00:15:58.453Z,0
2017-11-20T00:17:08.548Z,0
2017-11-20T00:18:17.821Z,0
2017-11-20T00:19:27.397Z,0
2017-11-20T00:20:37.552Z,0
2017-11-20T00:21:47.357Z,0
2017-11-20T00:22:57.173Z,0
2017-11-20T00:24:07.258Z,0
2017-11-20T00:25:17.329Z,0
2017-11-20T00:26:27.402Z,0
2017-11-20T00:27:37.511Z,0
2017-11-20T00:28:47.036Z,0
2017-11-20T00:29:56.581Z,0
2017-11-20T00:31:06.689Z,0
2017-11-20T00:32:16.483Z,0
2017-11-20T00:33:26.575Z,0
2017-11-20T00:34:36.650Z,0
2017-11-20T00:35:47.058Z,0
2017-11-20T00:36:56.864Z,0
2017-11-20T00:38:06.410Z,0
2017-11-20T00:39:15.954Z,0
2017-11-20T00:40:26.021Z,0
2017-11-20T00:41:35.846Z,0
2017-11-20T00:42:45.946Z,0
2017-11-20T00:43:56.027Z,0
2017-11-20T00:45:05.831Z,0
2017-11-20T00:46:15.904Z,0
2017-11-20T00:47:25.450Z,0
2017-11-20T00:48:35.537Z,0
2017-11-20T00:49:45.361Z,0
2017-11-20T00:50:55.432Z,0
2017-11-20T00:52:05.507Z,0
2017-11-20T00:53:15.587Z,0
2017-11-20T00:54:25.680Z,0
2017-11-20T00:55:35.817Z,0
2017-11-20T00:56:45.887Z,0
2017-11-20T00:57:55.701Z,0
2017-11-20T00:59:05.795Z,0
2017-11-20T01:00:15.633Z,0
2017-11-20T01:01:25.172Z,0
2017-11-20T01:02:36.243Z,0
2017-11-20T01:03:46.331Z,0
2017-11-20T01:04:56.402Z,0
2017-11-20T01:06:05.953Z,0
2017-11-20T01:07:16.024Z,0
2017-11-20T01:08:25.571Z,0
2017-11-20T01:09:35.632Z,0
2017-11-20T01:10:45.161Z,0
2017-11-20T01:11:54.972Z,0
2017-11-20T01:13:05.036Z,0
2017-11-20T01:14:14.831Z,0
2017-11-20T01:15:24.892Z,0
2017-11-20T01:16:34.969Z,0
2017-11-20T01:17:45.053Z,0
2017-11-20T01:18:55.124Z,0
2017-11-20T01:20:05.189Z,0
2017-11-20T01:21:15.027Z,0
2017-11-20T01:22:24.823Z,0
2017-11-20T01:23:34.904Z,0
2017-11-20T01:24:44.987Z,0
2017-11-20T01:25:55.062Z,0
2017-11-20T01:27:05.137Z,0
2017-11-20T01:28:15.198Z,0
2017-11-20T01:29:25.273Z,0
2017-11-20T01:30:35.344Z,0
2017-11-20T01:31:45.148Z,0
2017-11-20T01:32:54.964Z,0
2017-11-20T01:34:04.773Z,0
2017-11-20T01:35:14.597Z,0
2017-11-20T01:36:24.726Z,0
2017-11-20T01:37:34.807Z,0
2017-11-20T01:38:44.917Z,0
2017-11-20T01:39:54.996Z,0
2017-11-20T01:41:04.800Z,0
2017-11-20T01:42:14.919Z,0
2017-11-20T01:43:24.730Z,0
2017-11-20T01:44:34.802Z,0
2017-11-20T01:45:44.885Z,0
2017-11-20T01:46:54.702Z,0
2017-11-20T01:48:04.568Z,0
2017-11-20T01:49:14.633Z,0
2017-11-20T01:50:24.724Z,0
2017-11-20T01:51:34.592Z,0
2017-11-20T01:52:44.666Z,0
2017-11-20T01:53:54.783Z,0
2017-11-20T01:55:04.598Z,0
2017-11-20T01:56:14.648Z,0
2017-11-20T01:57:24.447Z,0
2017-11-20T01:58:34.291Z,0
2017-11-20T01:59:43.839Z,0
2017-11-20T02:00:53.915Z,0
2017-11-20T02:02:03.728Z,0
2017-11-20T02:03:13.530Z,0
2017-11-20T02:04:23.074Z,0
2017-11-20T02:05:32.868Z,0
2017-11-20T02:06:42.400Z,0
2017-11-20T02:07:52.217Z,0
2017-11-20T02:09:01.493Z,0
2017-11-20T02:10:11.580Z,0
2017-11-20T02:11:21.661Z,0
2017-11-20T02:12:31.739Z,0
2017-11-20T02:13:42.172Z,0
2017-11-20T02:14:52.250Z,0
2017-11-20T02:16:02.053Z,0
2017-11-20T02:17:11.593Z,0
2017-11-20T02:18:21.386Z,0
2017-11-20T02:19:31.241Z,0
2017-11-20T02:20:41.313Z,0
2017-11-20T02:21:51.388Z,0
2017-11-20T02:23:01.488Z,0
2017-11-20T02:24:11.306Z,0
2017-11-20T02:25:21.381Z,0
2017-11-20T02:26:31.455Z,0
2017-11-20T02:27:41.251Z,0
2017-11-20T02:28:51.067Z,0
2017-11-20T02:30:00.872Z,0
2017-11-20T02:31:10.686Z,0
2017-11-20T02:32:20.782Z,0
2017-11-20T02:33:30.865Z,0
2017-11-20T02:34:40.406Z,0
2017-11-20T02:35:50.521Z,0
2017-11-20T02:37:00.338Z,0
2017-11-20T02:38:10.429Z,0
2017-11-20T02:39:20.509Z,0
2017-11-20T02:40:30.617Z,0
2017-11-20T02:41:40.702Z,0
2017-11-20T02:42:50.840Z,0
2017-11-20T02:44:00.682Z,0
2017-11-20T02:45:10.755Z,0
2017-11-20T02:46:20.313Z,0
2017-11-20T02:47:30.167Z,0
2017-11-20T02:48:39.974Z,0
2017-11-20T02:49:50.047Z,0
2017-11-20T02:51:00.814Z,0
2017-11-20T02:52:10.895Z,0
2017-11-20T02:53:20.452Z,0
2017-11-20T02:54:30.551Z,0
2017-11-20T02:55:40.413Z,0
2017-11-20T02:56:50.498Z,0
2017-11-20T02:58:00.317Z,0
2017-11-20T02:59:09.863Z,0
2017-11-20T03:00:19.740Z,0
2017-11-20T03:01:29.025Z,0
2017-11-20T03:33:29.720Z,0
2017-11-20T03:34:39.808Z,0
2017-11-20T03:35:49.874Z,0
2017-11-20T03:36:59.957Z,0
2017-11-20T03:38:09.485Z,0
2017-11-20T03:39:19.285Z,0
2017-11-20T03:40:30.260Z,0
2017-11-20T03:41:40.344Z,0
2017-11-20T03:42:50.145Z,0
2017-11-20T03:43:59.951Z,0
2017-11-20T03:45:09.773Z,0
2017-11-20T03:46:19.581Z,0
2017-11-20T03:47:29.642Z,0
2017-11-20T03:48:39.735Z,0
2017-11-20T03:49:49.317Z,0
2017-11-20T03:50:59.115Z,0
2017-11-20T03:52:09.188Z,0
2017-11-20T03:53:18.723Z,0
2017-11-20T03:54:28.794Z,0
2017-11-20T03:55:38.594Z,0
2017-11-20T03:56:48.402Z,0
2017-11-20T03:57:57.958Z,0
2017-11-20T03:59:08.033Z,0
2017-11-20T04:00:17.564Z,0
2017-11-20T04:01:27.642Z,0
2017-11-20T04:02:37.767Z,0
2017-11-20T04:03:47.840Z,0
2017-11-20T04:04:57.924Z,0
2017-11-20T04:06:07.724Z,0
2017-11-20T04:07:17.792Z,0
2017-11-20T04:08:27.901Z,0
2017-11-20T04:09:37.959Z,0
2017-11-20T04:10:47.509Z,0
2017-11-20T04:11:57.573Z,0
2017-11-20T04:13:07.654Z,0
2017-11-20T04:14:17.466Z,0
2017-11-20T04:15:27.293Z,0
2017-11-20T04:16:37.118Z,0
2017-11-20T04:17:46.948Z,0
2017-11-20T04:18:57.034Z,0
2017-11-20T04:20:07.153Z,0
2017-11-20T04:21:17.233Z,0
2017-11-20T04:22:27.312Z,0
2017-11-20T04:23:37.131Z,0
2017-11-20T04:24:46.693Z,0
2017-11-20T04:25:56.768Z,0
2017-11-20T04:27:06.567Z,0
2017-11-20T04:28:16.668Z,0
2017-11-20T04:29:26.729Z,0
2017-11-20T04:30:36.516Z,0
2017-11-20T04:31:46.638Z,0
2017-11-20T04:32:56.718Z,0
2017-11-20T04:34:06.537Z,0
2017-11-20T04:35:16.602Z,0
2017-11-20T04:36:26.416Z,0
2017-11-20T04:37:36.497Z,0
2017-11-20T04:38:46.572Z,0
2017-11-20T04:39:56.652Z,0
2017-11-20T04:41:06.739Z,0
2017-11-20T04:42:16.803Z,0
2017-11-20T04:43:26.635Z,0
2017-11-20T04:44:36.441Z,0
2017-11-20T04:45:46.506Z,0
2017-11-20T04:46:56.320Z,0
2017-11-20T04:48:05.872Z,0
2017-11-20T04:49:15.957Z,0
2017-11-20T04:50:26.012Z,0
2017-11-20T04:51:35.557Z,0
2017-11-20T04:52:45.634Z,0
2017-11-20T04:53:55.711Z,0
2017-11-20T04:55:05.778Z,0
2017-11-20T04:56:15.865Z,0
2017-11-20T04:57:25.928Z,0
2017-11-20T04:58:35.742Z,0
2017-11-20T04:59:45.802Z,0
2017-11-20T05:00:55.881Z,0
2017-11-20T05:02:05.693Z,0
2017-11-20T05:03:15.510Z,0
2017-11-20T05:04:25.354Z,0
2017-11-20T05:05:35.145Z,0
2017-11-20T05:06:45.289Z,0
2017-11-20T05:07:55.372Z,0
2017-11-20T05:09:05.179Z,0
2017-11-20T05:10:15.022Z,0
2017-11-20T05:11:24.837Z,0
2017-11-20T05:12:34.894Z,0
2017-11-20T05:13:44.697Z,0
2017-11-20T05:14:54.758Z,0
2017-11-20T05:16:04.557Z,0
2017-11-20T05:17:14.400Z,0
2017-11-20T05:18:23.957Z,0
2017-11-20T05:19:33.493Z,0
2017-11-20T05:20:43.796Z,0
2017-11-20T05:21:53.877Z,0
2017-11-20T05:23:03.697Z,0
2017-11-20T05:24:13.296Z,0
2017-11-20T05:25:23.087Z,0
2017-11-20T05:26:33.188Z,0
2017-11-20T05:27:43.257Z,0
2017-11-20T05:28:53.330Z,0
2017-11-20T05:30:03.414Z,0
2017-11-20T05:31:13.482Z,0
2017-11-20T05:32:23.285Z,0
2017-11-20T05:33:33.096Z,0
2017-11-20T05:34:43.198Z,0
2017-11-20T05:35:53.094Z,0
2017-11-20T05:37:02.919Z,0
2017-11-20T05:38:12.974Z,0
2017-11-20T05:39:23.054Z,0
2017-11-20T05:40:33.120Z,0
2017-11-20T05:41:42.908Z,0
2017-11-20T05:42:52.990Z,0
2017-11-20T05:44:03.075Z,0
2017-11-20T05:45:12.888Z,0
2017-11-20T05:46:22.721Z,0
2017-11-20T05:47:32.832Z,0
2017-11-20T05:48:42.887Z,0
2017-11-20T05:49:52.960Z,0
2017-11-20T05:51:03.049Z,0
2017-11-20T05:52:12.848Z,0
2017-11-20T05:53:22.671Z,0
2017-11-20T05:54:32.216Z,0
2017-11-20T05:55:42.020Z,0
2017-11-20T05:56:51.839Z,0
2017-11-20T05:58:01.642Z,0
2017-11-20T05:59:11.733Z,0
2017-11-20T06:00:21.831Z,0
2017-11-20T06:01:31.923Z,0
2017-11-20T06:02:41.732Z,0
2017-11-20T06:03:51.828Z,0
2017-11-20T06:05:01.951Z,0
2017-11-20T06:06:11.752Z,0
2017-11-20T06:07:21.841Z,0
2017-11-20T06:08:31.912Z,0
2017-11-20T06:09:41.987Z,0
2017-11-20T06:10:51.518Z,0
2017-11-20T06:12:01.322Z,0
2017-11-20T06:13:11.414Z,0
2017-11-20T06:14:21.483Z,0
2017-11-20T06:15:31.288Z,5
2017-11-20T06:16:41.359Z,5
2017-11-20T06:17:51.416Z,5
2017-11-20T06:19:01.487Z,5
2017-11-20T06:20:11.567Z,5
2017-11-20T06:21:21.644Z,5
2017-11-20T06:22:31.525Z,5
2017-11-20T06:23:41.348Z,5
2017-11-20T06:24:51.414Z,5
2017-11-20T06:26:01.478Z,10
2017-11-20T06:27:11.541Z,10
2017-11-20T06:28:21.678Z,15
2017-11-20T06:29:31.739Z,15
2017-11-20T06:30:41.820Z,20
2017-11-20T06:31:51.894Z,20
2017-11-20T06:33:01.690Z,20
2017-11-20T06:34:11.036Z,20
2017-11-20T06:35:20.853Z,15
2017-11-20T06:36:30.666Z,15
2017-11-20T06:37:40.493Z,15
2017-11-20T06:38:50.571Z,20
2017-11-20T06:40:00.181Z,20
2017-11-20T06:41:09.977Z,20
2017-11-20T06:42:19.804Z,25
2017-11-20T06:43:29.625Z,25
2017-11-20T06:44:39.732Z,25
2017-11-20T06:45:49.872Z,25
2017-11-20T06:46:59.402Z,30
2017-11-20T06:48:09.217Z,30
2017-11-20T06:49:19.018Z,25
2017-11-20T06:50:28.933Z,30
2017-11-20T06:51:39.017Z,25
2017-11-20T06:52:48.835Z,25
2017-11-20T06:53:58.107Z,25
2017-11-20T06:55:07.947Z,25
2017-11-20T06:56:18.010Z,20
2017-11-20T06:57:28.097Z,20
2017-11-20T06:58:38.189Z,20
2017-11-20T06:59:48.260Z,20
2017-11-20T07:00:58.321Z,20
2017-11-20T07:02:08.398Z,20
2017-11-20T07:03:18.529Z,20
2017-11-20T07:04:28.356Z,20
2017-11-20T07:05:38.436Z,20
2017-11-20T07:06:48.509Z,25
2017-11-20T07:07:58.573Z,25
2017-11-20T07:09:08.160Z,20
2017-11-20T07:10:18.258Z,20
2017-11-20T07:11:28.082Z,20
2017-11-20T07:12:38.154Z,20
2017-11-20T07:13:47.961Z,15
2017-11-20T07:14:57.814Z,15
2017-11-20T07:16:07.624Z,15
2017-11-20T07:17:17.440Z,25
2017-11-20T07:18:27.257Z,30
2017-11-20T07:19:36.797Z,25
2017-11-20T07:20:46.871Z,25
2017-11-20T07:21:56.420Z,30
2017-11-20T07:23:06.501Z,30
2017-11-20T07:24:16.311Z,35
2017-11-20T07:25:26.414Z,30
2017-11-20T07:26:36.273Z,30
2017-11-20T07:27:46.333Z,25
2017-11-20T07:28:56.149Z,30
2017-11-20T07:30:05.961Z,35
2017-11-20T07:31:16.058Z,40
2017-11-20T07:32:26.121Z,40
2017-11-20T07:33:36.220Z,50
2017-11-20T07:34:46.322Z,50
2017-11-20T07:35:56.410Z,50
2017-11-20T07:37:06.462Z,50
2017-11-20T07:38:16.579Z,50
2017-11-20T07:39:26.646Z,50
2017-11-20T07:40:36.727Z,50
2017-11-20T07:41:46.008Z,55
2017-11-20T07:42:55.554Z,55
2017-11-20T07:44:05.664Z,55
2017-11-20T07:45:15.820Z,65
2017-11-20T07:46:25.883Z,65
2017-11-20T07:47:35.435Z,70
2017-11-20T07:48:45.244Z,70
2017-11-20T07:49:55.101Z,75
2017-11-20T07:51:05.171Z,75
2017-11-20T07:52:15.259Z,80
2017-11-20T07:53:25.061Z,80
2017-11-20T07:54:35.147Z,85
2017-11-20T07:55:44.949Z,85
2017-11-20T07:56:54.766Z,85
2017-11-20T07:58:04.308Z,85
2017-11-20T07:59:14.129Z,85
2017-11-20T08:00:24.202Z,85
2017-11-20T08:01:34.345Z,85
2017-11-20T08:02:45.159Z,95
2017-11-20T08:03:55.221Z,95
2017-11-20T08:05:05.303Z,95
2017-11-20T08:06:15.367Z,95
2017-11-20T08:07:25.174Z,95
2017-11-20T08:08:35.256Z,95
2017-11-20T08:09:45.327Z,95
2017-11-20T08:10:55.417Z,90
2017-11-20T08:12:05.213Z,100
2017-11-20T08:13:15.065Z,100
2017-11-20T08:14:24.619Z,100
2017-11-20T08:15:34.701Z,95
2017-11-20T08:16:44.822Z,90
2017-11-20T08:17:54.638Z,90
2017-11-20T08:19:04.758Z,95
2017-11-20T08:20:14.620Z,95
2017-11-20T08:21:24.448Z,85
2017-11-20T08:22:34.293Z,90
2017-11-20T08:23:44.415Z,75
2017-11-20T08:24:54.476Z,70
2017-11-20T08:26:04.592Z,75
2017-11-20T08:27:13.876Z,75
2017-11-20T08:28:23.678Z,75
2017-11-20T08:29:33.499Z,85
2017-11-20T08:30:42.774Z,95
2017-11-20T08:31:52.863Z,100
2017-11-20T08:33:02.681Z,105
2017-11-20T08:34:12.746Z,110
2017-11-20T08:35:23.727Z,105
2017-11-20T08:36:33.547Z,95
2017-11-20T08:37:43.458Z,80
2017-11-20T08:38:53.576Z,65
2017-11-20T08:40:03.683Z,60
2017-11-20T08:41:13.810Z,50
2017-11-20T08:42:23.948Z,45
2017-11-20T08:43:33.877Z,40
2017-11-20T08:44:43.974Z,35
2017-11-20T08:45:53.814Z,35
2017-11-20T08:47:03.656Z,40
2017-11-20T08:48:13.800Z,40
2017-11-20T08:49:23.978Z,40
2017-11-20T08:50:33.838Z,40
2017-11-20T08:51:43.677Z,35
2017-11-20T08:52:53.795Z,35
2017-11-20T08:54:03.356Z,30
2017-11-20T08:55:13.519Z,30
2017-11-20T08:56:23.610Z,30
2017-11-20T08:57:33.730Z,35
2017-11-20T08:58:43.582Z,35
2017-11-20T08:59:53.694Z,40
2017-11-20T09:01:03.648Z,40
2017-11-20T09:02:13.757Z,40
2017-11-20T09:03:23.900Z,45
2017-11-20T09:04:34.027Z,50
2017-11-20T09:05:44.143Z,50
2017-11-20T09:06:54.013Z,60
2017-11-20T09:08:04.134Z,65
2017-11-20T09:09:14.248Z,75
2017-11-20T09:10:24.138Z,70
2017-11-20T09:11:34.237Z,70
2017-11-20T09:12:44.413Z,70
2017-11-20T09:13:54.259Z,75
2017-11-20T09:15:04.112Z,75
2017-11-20T09:16:15.432Z,75
2017-11-20T09:17:25.550Z,80
2017-11-20T09:18:35.721Z,85
2017-11-20T09:19:45.864Z,80
2017-11-20T09:20:55.993Z,85
2017-11-20T09:22:05.857Z,85
2017-11-20T09:23:15.981Z,90
2017-11-20T09:24:25.864Z,100
2017-11-20T09:25:35.977Z,105
2017-11-20T09:26:45.555Z,110
2017-11-20T09:27:55.697Z,115
2017-11-20T09:29:05.812Z,120
2017-11-20T09:30:15.928Z,125
2017-11-20T09:31:26.046Z,125
2017-11-20T09:32:35.905Z,130
2017-11-20T09:33:45.725Z,135
2017-11-20T09:34:55.857Z,130
2017-11-20T09:36:05.750Z,130
2017-11-20T09:37:15.586Z,130
2017-11-20T09:38:25.447Z,135
2017-11-20T09:39:35.562Z,135
2017-11-20T09:40:45.668Z,135
2017-11-20T09:41:55.835Z,130
2017-11-20T09:43:05.950Z,125
2017-11-20T09:44:15.787Z,130
2017-11-20T09:45:26.045Z,180
2017-11-20T09:46:35.903Z,140
2017-11-20T09:47:46.073Z,145
2017-11-20T09:48:55.918Z,145
2017-11-20T09:50:05.754Z,150
2017-11-20T09:51:15.616Z,165
2017-11-20T09:52:25.464Z,175
2017-11-20T09:53:35.640Z,195
2017-11-20T09:54:45.572Z,195
2017-11-20T09:55:55.433Z,205
2017-11-20T09:57:05.546Z,190
2017-11-20T09:58:15.677Z,170
2017-11-20T09:59:25.841Z,160
2017-11-20T10:00:36.066Z,170
2017-11-20T10:01:46.170Z,150
2017-11-20T10:02:56.300Z,145
2017-11-20T10:04:06.400Z,150
2017-11-20T10:05:16.579Z,145
2017-11-20T10:06:26.435Z,150
2017-11-20T10:07:36.608Z,150
2017-11-20T10:08:46.725Z,150
2017-11-20T10:09:56.595Z,150
2017-11-20T10:11:06.775Z,150
2017-11-20T10:12:16.904Z,155
2017-11-20T10:13:27.023Z,185
2017-11-20T10:14:36.863Z,175
2017-11-20T10:15:46.437Z,150
2017-11-20T10:16:56.314Z,150
2017-11-20T10:18:06.427Z,155
2017-11-20T10:19:15.997Z,165
2017-11-20T10:20:25.594Z,175
2017-11-20T10:21:35.144Z,165
2017-11-20T10:22:44.984Z,155
2017-11-20T10:23:55.081Z,155
2017-11-20T10:25:04.898Z,155
2017-11-20T10:26:14.729Z,155
2017-11-20T10:27:24.301Z,155
2017-11-20T10:28:34.433Z,155
2017-11-20T10:29:44.536Z,155
2017-11-20T10:30:54.657Z,155
2017-11-20T10:32:04.248Z,160
2017-11-20T10:33:14.341Z,165
2017-11-20T10:34:24.420Z,165
2017-11-20T10:35:34.259Z,165
2017-11-20T10:36:43.840Z,165
2017-11-20T10:37:53.911Z,195
2017-11-20T10:39:03.457Z,155
2017-11-20T10:40:13.600Z,145
2017-11-20T10:41:23.436Z,145
2017-11-20T10:42:34.040Z,145
2017-11-20T10:43:44.142Z,160
2017-11-20T10:44:53.437Z,165
2017-11-20T10:46:03.524Z,155
2017-11-20T10:47:13.629Z,170
2017-11-20T10:48:24.877Z,160
2017-11-20T10:49:35.032Z,150
2017-11-20T10:50:44.597Z,165
2017-11-20T10:51:54.766Z,160
2017-11-20T10:53:04.871Z,160
2017-11-20T10:54:14.984Z,155
2017-11-20T10:55:24.813Z,165
2017-11-20T10:56:34.880Z,170
2017-11-20T10:57:44.986Z,170
2017-11-20T10:58:54.813Z,165
2017-11-20T11:00:04.913Z,165
2017-11-20T11:01:14.995Z,155
2017-11-20T11:02:24.846Z,150
2017-11-20T11:03:34.750Z,160
2017-11-20T11:04:44.858Z,160
2017-11-20T11:05:54.968Z,165
2017-11-20T11:07:04.824Z,160
2017-11-20T11:08:14.676Z,165
2017-11-20T11:09:24.793Z,165
2017-11-20T11:10:34.614Z,145
2017-11-20T11:11:44.449Z,160
2017-11-20T11:12:54.269Z,175
2017-11-20T11:14:03.833Z,190
2017-11-20T11:15:13.429Z,190
2017-11-20T11:16:23.268Z,205
2017-11-20T11:17:33.369Z,180
2017-11-20T11:18:43.800Z,190
2017-11-20T11:19:53.911Z,195
2017-11-20T11:21:04.023Z,150
2017-11-20T11:22:14.108Z,170
2017-11-20T11:23:23.956Z,170
2017-11-20T11:24:34.070Z,170
2017-11-20T11:25:44.157Z,165
2017-11-20T11:26:54.237Z,165
2017-11-20T11:28:04.320Z,165
2017-11-20T11:29:14.451Z,165
2017-11-20T11:30:24.045Z,165
2017-11-20T11:31:34.153Z,160
2017-11-20T11:32:44.008Z,160
2017-11-20T11:33:54.106Z,160
2017-11-20T11:35:03.944Z,150
2017-11-20T11:36:16.470Z,135
2017-11-20T11:37:26.167Z,150
2017-11-20T11:38:39.118Z,150
2017-11-20T11:39:48.933Z,145
2017-11-20T11:40:59.030Z,140
2017-11-20T11:42:09.119Z,140
2017-11-20T11:43:19.228Z,135
2017-11-20T11:44:29.380Z,135
2017-11-20T11:45:39.209Z,140
2017-11-20T11:46:49.292Z,135
2017-11-20T11:47:59.364Z,130
2017-11-20T11:49:09.460Z,130
2017-11-20T11:50:19.545Z,140
2017-11-20T11:51:29.369Z,140
2017-11-20T11:52:39.489Z,145
2017-11-20T11:53:49.602Z,150
2017-11-20T11:54:59.431Z,165
2017-11-20T11:56:09.527Z,155
2017-11-20T11:57:19.353Z,170
2017-11-20T11:58:29.466Z,170
2017-11-20T11:59:39.281Z,155
2017-11-20T12:00:49.126Z,135
2017-11-20T12:01:59.012Z,135
2017-11-20T12:03:09.095Z,130
2017-11-20T12:04:18.918Z,135
2017-11-20T12:05:28.742Z,130
2017-11-20T12:06:38.308Z,135
2017-11-20T12:07:48.176Z,140
2017-11-20T12:08:58.290Z,180
2017-11-20T12:10:08.380Z,180
2017-11-20T12:11:18.533Z,205
2017-11-20T12:12:28.384Z,195
2017-11-20T12:13:38.545Z,130
2017-11-20T12:14:48.369Z,110
2017-11-20T12:15:58.455Z,95
2017-11-20T12:17:08.582Z,80
2017-11-20T12:18:19.485Z,80
2017-11-20T12:19:29.665Z,105
2017-11-20T12:20:39.788Z,180
2017-11-20T12:21:49.927Z,180
2017-11-20T12:23:00.027Z,175
2017-11-20T12:24:09.592Z,200
2017-11-20T12:25:19.772Z,220
2017-11-20T12:26:29.862Z,240
2017-11-20T12:27:39.951Z,200
2017-11-20T12:28:49.783Z,175
2017-11-20T12:30:00.248Z,160
2017-11-20T12:31:09.863Z,160
2017-11-20T12:32:19.415Z,150
2017-11-20T12:33:29.498Z,160
2017-11-20T12:34:39.037Z,185
2017-11-20T12:35:49.114Z,190
2017-11-20T12:36:58.712Z,190
2017-11-20T12:38:08.556Z,165
2017-11-20T12:39:18.391Z,145
2017-11-20T12:40:28.485Z,140
2017-11-20T12:41:38.313Z,130
2017-11-20T12:42:48.456Z,135
2017-11-20T12:43:58.293Z,140
2017-11-20T12:45:08.400Z,165
2017-11-20T12:46:18.224Z,165
2017-11-20T12:47:28.045Z,175
2017-11-20T12:48:38.276Z,170
2017-11-20T12:49:48.376Z,165
2017-11-20T12:50:58.455Z,150
2017-11-20T12:52:08.535Z,130
2017-11-20T12:53:18.617Z,130
2017-11-20T12:54:28.755Z,130
2017-11-20T12:55:38.585Z,135
2017-11-20T12:56:48.138Z,135
2017-11-20T12:57:58.244Z,135
2017-11-20T12:59:08.054Z,135
2017-11-20T13:00:18.145Z,140
2017-11-20T13:01:27.971Z,135
2017-11-20T13:02:37.788Z,135
2017-11-20T13:03:47.900Z,140
2017-11-20T13:04:57.800Z,130
2017-11-20T13:06:07.133Z,130
2017-11-20T13:07:17.243Z,135
2017-11-20T13:08:26.824Z,130
2017-11-20T13:09:36.651Z,130
2017-11-20T13:10:46.732Z,155
2017-11-20T13:11:56.876Z,150
2017-11-20T13:13:06.993Z,135
2017-11-20T13:14:16.846Z,115
2017-11-20T13:15:26.930Z,110
2017-11-20T13:16:36.495Z,100
2017-11-20T13:17:46.596Z,95
2017-11-20T13:18:56.707Z,90
2017-11-20T13:20:06.535Z,90
2017-11-20T13:21:16.346Z,90
2017-11-20T13:22:26.175Z,90
2017-11-20T13:23:37.166Z,95
2017-11-20T13:24:46.716Z,85
2017-11-20T13:25:56.848Z,80
2017-11-20T13:27:06.675Z,85
2017-11-20T13:28:17.074Z,85
2017-11-20T13:29:27.200Z,85
2017-11-20T13:30:37.021Z,85
2017-11-20T13:31:46.849Z,75
2017-11-20T13:32:56.956Z,70
2017-11-20T13:34:07.052Z,70
2017-11-20T13:35:17.199Z,70
2017-11-20T13:36:27.271Z,70
2017-11-20T13:37:37.394Z,75
2017-11-20T13:38:47.221Z,75
2017-11-20T13:39:57.315Z,75
2017-11-20T13:41:07.639Z,80
2017-11-20T13:42:17.490Z,80
2017-11-20T13:43:27.332Z,70
2017-11-20T13:44:37.158Z,80
2017-11-20T13:45:47.266Z,80
2017-11-20T13:46:57.420Z,75
2017-11-20T13:48:07.505Z,75
2017-11-20T13:49:17.597Z,65
2017-11-20T13:50:27.666Z,65
2017-11-20T13:51:37.567Z,65
2017-11-20T13:52:47.706Z,70
2017-11-20T13:53:57.794Z,60
2017-11-20T13:55:07.604Z,70
2017-11-20T13:56:17.710Z,60
2017-11-20T13:57:27.532Z,55
2017-11-20T13:58:37.674Z,55
2017-11-20T13:59:47.500Z,55
2017-11-20T14:00:57.048Z,60
2017-11-20T14:02:06.901Z,60
2017-11-20T14:03:16.976Z,55
2017-11-20T14:04:26.840Z,50
2017-11-20T14:05:36.955Z,50
2017-11-20T14:06:46.786Z,45
2017-11-20T14:07:58.119Z,50
2017-11-20T14:09:08.201Z,50
2017-11-20T14:10:18.285Z,45
2017-11-20T14:11:27.848Z,45
2017-11-20T14:12:37.951Z,45
2017-11-20T14:13:48.283Z,45
2017-11-20T14:14:58.383Z,45
2017-11-20T14:16:08.528Z,40
2017-11-20T14:17:18.349Z,40
2017-11-20T14:18:28.434Z,40
2017-11-20T14:19:38.531Z,35
2017-11-20T14:20:48.617Z,35
2017-11-20T14:21:58.765Z,35
2017-11-20T14:23:08.864Z,35
2017-11-20T14:24:18.740Z,30
2017-11-20T14:25:28.826Z,30
2017-11-20T14:26:38.916Z,30
2017-11-20T14:27:48.773Z,30
2017-11-20T14:28:58.593Z,30
2017-11-20T14:30:08.718Z,30
2017-11-20T14:31:18.552Z,25
2017-11-20T14:32:28.622Z,25
2017-11-20T14:33:38.797Z,25
2017-11-20T14:34:48.874Z,25
2017-11-20T14:35:58.951Z,25
2017-11-20T14:37:09.040Z,25
2017-11-20T14:38:19.130Z,25
2017-11-20T14:39:28.948Z,20
2017-11-20T14:40:39.060Z,20
2017-11-20T14:41:48.874Z,20
2017-11-20T14:42:58.722Z,20
2017-11-20T14:44:08.824Z,20
2017-11-20T14:45:18.704Z,15
2017-11-20T14:46:28.810Z,15
2017-11-20T14:47:38.927Z,15
2017-11-20T14:48:49.003Z,15
2017-11-20T14:49:59.078Z,15
2017-11-20T14:51:09.224Z,15
2017-11-20T14:52:19.062Z,10
2017-11-20T14:53:28.899Z,10
2017-11-20T14:54:38.975Z,10
2017-11-20T14:55:49.038Z,10
2017-11-20T14:56:58.890Z,10
2017-11-20T14:58:08.975Z,10
2017-11-20T14:59:18.531Z,5
2017-11-20T15:00:28.339Z,5
2017-11-20T15:01:38.149Z,5
2017-11-20T15:02:48.322Z,5
2017-11-20T15:03:58.413Z,5
2017-11-20T15:05:08.518Z,5
2017-11-20T15:06:18.631Z,5
2017-11-20T15:07:28.741Z,5
2017-11-20T15:08:38.817Z,5
2017-11-20T15:09:48.913Z,0
2017-11-20T15:10:58.739Z,0
2017-11-20T15:12:08.841Z,0
2017-11-20T15:13:18.673Z,0
2017-11-20T15:14:28.221Z,0
2017-11-20T15:15:38.371Z,0
2017-11-20T15:16:48.222Z,0
2017-11-20T15:17:58.337Z,0
2017-11-20T15:19:08.165Z,0
2017-11-20T15:20:18.264Z,0
2017-11-20T15:21:28.125Z,0
2017-11-20T15:22:37.661Z,0
2017-11-20T15:23:47.220Z,0
2017-11-20T15:24:57.318Z,0
2017-11-20T15:26:07.203Z,0
2017-11-20T15:27:16.765Z,0
2017-11-20T15:28:26.877Z,0
2017-11-20T15:29:37.020Z,0
2017-11-20T15:30:47.104Z,0
2017-11-20T15:31:57.240Z,0
2017-11-20T15:33:07.318Z,0
2017-11-20T15:34:17.419Z,0
2017-11-20T15:35:27.496Z,0
2017-11-20T15:36:37.586Z,0
2017-11-20T15:37:47.702Z,0
2017-11-20T15:38:57.782Z,0
2017-11-20T15:40:07.883Z,0
2017-11-20T15:41:17.957Z,0
2017-11-20T15:42:28.066Z,0
2017-11-20T15:43:37.953Z,0
2017-11-20T15:44:48.038Z,0
2017-11-20T15:45:58.154Z,0
2017-11-20T15:47:08.266Z,0
2017-11-20T15:48:18.347Z,0
2017-11-20T15:49:28.191Z,0
2017-11-20T15:50:38.038Z,0
2017-11-20T15:51:48.133Z,0
2017-11-20T15:52:57.944Z,0
2017-11-20T15:54:08.554Z,0
2017-11-20T15:55:18.709Z,0
2017-11-20T15:56:28.914Z,0
2017-11-20T15:57:38.743Z,0
2017-11-20T15:58:48.872Z,0
2017-11-20T15:59:58.682Z,0
2017-11-20T16:01:08.833Z,0
2017-11-20T16:02:18.654Z,0
2017-11-20T16:03:28.738Z,0
2017-11-20T16:04:38.853Z,0
2017-11-20T16:05:49.020Z,0
2017-11-20T16:06:58.819Z,0
2017-11-20T16:08:08.932Z,0
2017-11-20T16:09:19.069Z,0
2017-11-20T16:10:29.185Z,0
2017-11-20T16:11:38.989Z,0
2017-11-20T16:12:49.076Z,0
2017-11-20T16:13:58.887Z,0
2017-11-20T16:15:08.707Z,0
2017-11-20T16:16:18.811Z,0
2017-11-20T16:17:28.949Z,0
2017-11-20T16:18:39.056Z,0
2017-11-20T16:19:49.859Z,0
2017-11-20T16:20:59.935Z,0
2017-11-20T16:22:10.024Z,0
2017-11-20T16:23:20.161Z,0
2017-11-20T16:24:29.976Z,0
2017-11-20T16:25:39.788Z,0
2017-11-20T16:26:49.627Z,0
2017-11-20T16:27:59.727Z,0
2017-11-20T16:29:09.859Z,0
2017-11-20T16:30:19.953Z,0
2017-11-20T16:31:29.793Z,0
2017-11-20T16:32:39.631Z,0
2017-11-20T16:33:49.463Z,0
2017-11-20T16:34:59.294Z,0
2017-11-20T16:36:09.135Z,0
2017-11-20T16:37:19.222Z,0
2017-11-20T16:38:29.048Z,0
2017-11-20T16:39:39.152Z,0
2017-11-20T16:40:48.979Z,0
2017-11-20T16:41:58.282Z,0
2017-11-20T16:43:08.100Z,0
2017-11-20T16:44:17.908Z,0
2017-11-20T16:45:28.004Z,0
2017-11-20T16:46:37.885Z,0
2017-11-20T16:47:47.963Z,0
2017-11-20T16:48:57.529Z,0
2017-11-20T16:50:07.613Z,0
2017-11-20T16:51:17.707Z,0
2017-11-20T16:52:27.835Z,0
2017-11-20T16:53:37.674Z,0
2017-11-20T16:54:47.785Z,0
2017-11-20T16:55:57.885Z,0
2017-11-20T16:57:07.691Z,0
2017-11-20T16:58:17.600Z,0
2017-11-20T16:59:27.518Z,0
2017-11-20T17:00:37.650Z,0
2017-11-20T17:01:47.490Z,0
2017-11-20T17:02:57.341Z,0
2017-11-20T17:04:07.414Z,0
2017-11-20T17:05:17.515Z,0
2017-11-20T17:06:27.357Z,0
2017-11-20T17:07:37.513Z,0
2017-11-20T17:08:47.631Z,0
2017-11-20T17:09:57.841Z,0
2017-11-20T17:11:07.940Z,0
2017-11-20T17:12:18.068Z,0
2017-11-20T17:13:27.882Z,0
2017-11-20T17:14:37.973Z,0
2017-11-20T17:15:48.059Z,0
2017-11-20T17:16:57.873Z,0
2017-11-20T17:18:07.954Z,0